sensor_id;sensor_type;location;lat;lon;timestamp;pressure;altitude;pressure_sealevel;temperature;humidity
68320;BME280;55168;51.120;17.024;2024-03-29T00:00:00;98740;;;7.7;100.0
68320;BME280;55168;51.120;17.024;2024-03-29T00:01:00;98740;;;7.6;100.0
68320;BME280;55168;51.120;17.024;2024-03-29T00:02:00;98740;;;7.6;100.0
68320;BME280;55168;51.120;17.024;2024-03-29T00:03:00;98740;;;7.6;100.0
68320;BME280;55168;51.120;17.024;2024-03-29T00:04:00;98750;;;7.6;100.0
68320;BME280;55168;51.120;17.024;2024-03-29T00:05:00;98750;;;7.6;100.0
68320;BME280;55168;51.120;17.024;2024-03-29T00:06:00;98750;;;7.6;100.0
68320;BME280;55168;51.120;17.024;2024-03-29T00:07:00;98750;;;7.6;100.0
68320;BME280;55168;51.120;17.024;2024-03-29T00:08:00;98750;;;7.6;100.0
68320;BME280;55168;51.120;17.024;2024-03-29T00:09:00;98760;;;7.6;100.0
68320;BME280;55168;51.120;17.024;2024-03-29T00:10:00;98760;;;7.5;100.0
68320;BME280;55168;51.120;17.024;2024-03-29T00:11:00;98760;;;7.5;100.0
68320;BME280;55168;51.120;17.024;2024-03-29T00:12:00;98770;;;7.5;100.0
68320;BME280;55168;51.120;17.024;2024-03-29T00:13:00;98770;;;7.5;100.0
68320;BME280;55168;51.120;17.024;2024-03-29T00:14:00;98770;;;7.5;100.0
68320;BME280;55168;51.120;17.024;2024-03-29T00:15:00;98770;;;7.5;100.0
68320;BME280;55168;51.120;17.024;2024-03-29T00:16:00;98770;;;7.5;100.0
68320;BME280;55168;51.120;17.024;2024-03-29T00:17:00;98770;;;7.5;100.0
68320;BME280;55168;51.120;17.024;2024-03-29T00:18:00;98770;;;7.5;100.0
68320;BME280;55168;51.120;17.024;2024-03-29T00:19:00;98780;;;7.5;100.0
68320;BME280;55168;51.120;17.024;2024-03-29T00:20:00;98780;;;7.5;100.0
68320;BME280;55168;51.120;17.024;2024-03-29T00:21:00;98780;;;7.6;100.0
68320;BME280;55168;51.120;17.024;2024-03-29T00:22:00;98780;;;7.5;100.0
68320;BME280;55168;51.120;17.024;2024-03-29T00:23:00;98790;;;7.5;100.0
68320;BME280;55168;51.120;17.024;2024-03-29T00:24:00;98790;;;7.6;100.0
68320;BME280;55168;51.120;17.024;2024-03-29T00:25:00;98790;;;7.6;100.0
68320;BME280;55168;51.120;17.024;2024-03-29T00:26:00;98790;;;7.6;100.0
68320;BME280;55168;51.120;17.024;2024-03-29T00:27:00;98800;;;7.6;100.0
68320;BME280;55168;51.120;17.024;2024-03-29T00:28:00;98800;;;7.5;100.0
68320;BME280;55168;51.120;17.024;2024-03-29T00:29:00;98810;;;7.5;100.0
68320;BME280;55168;51.120;17.024;2024-03-29T00:30:00;98800;;;7.5;100.0
68320;BME280;55168;51.120;17.024;2024-03-29T00:31:00;98810;;;7.5;100.0
68320;BME280;55168;51.120;17.024;2024-03-29T00:32:00;98810;;;7.5;100.0
68320;BME280;55168;51.120;17.024;2024-03-29T00:33:00;98810;;;7.5;100.0
68320;BME280;55168;51.120;17.024;2024-03-29T00:34:00;98820;;;7.4;100.0
68320;BME280;55168;51.120;17.024;2024-03-29T00:35:00;98820;;;7.4;100.0
68320;BME280;55168;51.120;17.024;2024-03-29T00:36:00;98820;;;7.4;100.0
68320;BME280;55168;51.120;17.024;2024-03-29T00:37:00;98820;;;7.4;100.0
68320;BME280;55168;51.120;17.024;2024-03-29T00:38:00;98830;;;7.3;100.0
68320;BME280;55168;51.120;17.024;2024-03-29T00:39:00;98830;;;7.3;100.0
68320;BME280;55168;51.120;17.024;2024-03-29T00:40:00;98840;;;7.3;100.0
68320;BME280;55168;51.120;17.024;2024-03-29T00:41:00;98840;;;7.3;100.0
68320;BME280;55168;51.120;17.024;2024-03-29T00:42:00;98840;;;7.3;100.0
68320;BME280;55168;51.120;17.024;2024-03-29T00:43:00;98840;;;7.3;100.0
68320;BME280;55168;51.120;17.024;2024-03-29T00:44:00;98850;;;7.3;100.0
68320;BME280;55168;51.120;17.024;2024-03-29T00:45:00;98850;;;7.3;100.0
68320;BME280;55168;51.120;17.024;2024-03-29T00:46:00;98850;;;7.3;100.0
68320;BME280;55168;51.120;17.024;2024-03-29T00:47:00;98850;;;7.3;100.0
68320;BME280;55168;51.120;17.024;2024-03-29T00:48:00;98860;;;7.3;100.0
68320;BME280;55168;51.120;17.024;2024-03-29T00:49:00;98860;;;7.3;100.0
68320;BME280;55168;51.120;17.024;2024-03-29T00:50:00;98860;;;7.4;100.0
68320;BME280;55168;51.120;17.024;2024-03-29T00:51:00;98870;;;7.4;100.0
68320;BME280;55168;51.120;17.024;2024-03-29T00:52:00;98870;;;7.4;100.0
68320;BME280;55168;51.120;17.024;2024-03-29T00:53:00;98870;;;7.4;100.0
68320;BME280;55168;51.120;17.024;2024-03-29T00:54:00;98870;;;7.5;100.0
68320;BME280;55168;51.120;17.024;2024-03-29T00:55:00;98880;;;7.5;100.0
68320;BME280;55168;51.120;17.024;2024-03-29T00:56:00;98880;;;7.4;100.0
68320;BME280;55168;51.120;17.024;2024-03-29T00:57:00;98880;;;7.4;100.0
68320;BME280;55168;51.120;17.024;2024-03-29T00:58:00;98890;;;7.4;100.0
68320;BME280;55168;51.120;17.024;2024-03-29T00:59:00;98890;;;7.4;100.0
68320;BME280;55168;51.120;17.024;2024-03-29T01:00:00;98890;;;7.4;100.0
68320;BME280;55168;51.120;17.024;2024-03-29T01:01:00;98890;;;7.4;100.0
68320;BME280;55168;51.120;17.024;2024-03-29T01:02:00;98890;;;7.4;100.0
68320;BME280;55168;51.120;17.024;2024-03-29T01:03:00;98890;;;7.4;100.0
68320;BME280;55168;51.120;17.024;2024-03-29T01:04:00;98890;;;7.4;100.0
68320;BME280;55168;51.120;17.024;2024-03-29T01:05:00;98900;;;7.4;100.0
68320;BME280;55168;51.120;17.024;2024-03-29T01:06:00;98900;;;7.4;100.0
68320;BME280;55168;51.120;17.024;2024-03-29T01:07:00;98900;;;7.4;100.0
68320;BME280;55168;51.120;17.024;2024-03-29T01:08:00;98900;;;7.4;100.0
68320;BME280;55168;51.120;17.024;2024-03-29T01:09:00;98900;;;7.5;100.0
68320;BME280;55168;51.120;17.024;2024-03-29T01:10:00;98900;;;7.5;100.0
68320;BME280;55168;51.120;17.024;2024-03-29T01:11:00;98910;;;7.5;100.0
68320;BME280;55168;51.120;17.024;2024-03-29T01:12:00;98900;;;7.5;100.0
68320;BME280;55168;51.120;17.024;2024-03-29T01:13:00;98910;;;7.5;100.0
68320;BME280;55168;51.120;17.024;2024-03-29T01:14:00;98910;;;7.5;100.0
68320;BME280;55168;51.120;17.024;2024-03-29T01:15:00;98910;;;7.4;100.0
68320;BME280;55168;51.120;17.024;2024-03-29T01:16:00;98920;;;7.4;100.0
68320;BME280;55168;51.120;17.024;2024-03-29T01:17:00;98920;;;7.3;100.0
68320;BME280;55168;51.120;17.024;2024-03-29T01:18:00;98920;;;7.3;100.0
68320;BME280;55168;51.120;17.024;2024-03-29T01:19:00;98920;;;7.3;100.0
68320;BME280;55168;51.120;17.024;2024-03-29T01:20:00;98920;;;7.3;100.0
68320;BME280;55168;51.120;17.024;2024-03-29T01:21:00;98920;;;7.2;100.0
68320;BME280;55168;51.120;17.024;2024-03-29T01:22:00;98920;;;7.2;100.0
68320;BME280;55168;51.120;17.024;2024-03-29T01:23:00;98930;;;7.3;100.0
68320;BME280;55168;51.120;17.024;2024-03-29T01:24:00;98920;;;7.2;100.0
68320;BME280;55168;51.120;17.024;2024-03-29T01:25:00;98920;;;7.2;100.0
68320;BME280;55168;51.120;17.024;2024-03-29T01:26:00;98920;;;7.2;100.0
68320;BME280;55168;51.120;17.024;2024-03-29T01:27:00;98930;;;7.2;100.0
68320;BME280;55168;51.120;17.024;2024-03-29T01:28:00;98920;;;7.3;100.0
68320;BME280;55168;51.120;17.024;2024-03-29T01:29:00;98930;;;7.3;100.0
68320;BME280;55168;51.120;17.024;2024-03-29T01:30:00;98930;;;7.3;100.0
68320;BME280;55168;51.120;17.024;2024-03-29T01:31:00;98930;;;7.3;100.0
68320;BME280;55168;51.120;17.024;2024-03-29T01:32:00;98930;;;7.3;100.0
68320;BME280;55168;51.120;17.024;2024-03-29T01:33:00;98930;;;7.3;100.0
68320;BME280;55168;51.120;17.024;2024-03-29T01:34:00;98930;;;7.2;100.0
68320;BME280;55168;51.120;17.024;2024-03-29T01:35:00;98930;;;7.2;100.0
68320;BME280;55168;51.120;17.024;2024-03-29T01:36:00;98930;;;7.2;100.0
68320;BME280;55168;51.120;17.024;2024-03-29T01:37:00;98930;;;7.2;100.0
68320;BME280;55168;51.120;17.024;2024-03-29T01:38:00;98930;;;7.2;100.0
68320;BME280;55168;51.120;17.024;2024-03-29T01:39:00;98930;;;7.2;100.0
68320;BME280;55168;51.120;17.024;2024-03-29T01:40:00;98930;;;7.2;100.0
68320;BME280;55168;51.120;17.024;2024-03-29T01:41:00;98930;;;7.2;100.0
68320;BME280;55168;51.120;17.024;2024-03-29T01:42:00;98940;;;7.2;100.0
68320;BME280;55168;51.120;17.024;2024-03-29T01:43:00;98930;;;7.2;100.0
68320;BME280;55168;51.120;17.024;2024-03-29T01:44:00;98930;;;7.2;100.0
68320;BME280;55168;51.120;17.024;2024-03-29T01:45:00;98930;;;7.2;100.0
68320;BME280;55168;51.120;17.024;2024-03-29T01:46:00;98930;;;7.1;100.0
68320;BME280;55168;51.120;17.024;2024-03-29T01:47:00;98930;;;7.1;100.0
68320;BME280;55168;51.120;17.024;2024-03-29T01:48:00;98930;;;7.1;100.0
68320;BME280;55168;51.120;17.024;2024-03-29T01:49:00;98930;;;7.1;100.0
68320;BME280;55168;51.120;17.024;2024-03-29T01:50:00;98930;;;7.1;100.0
68320;BME280;55168;51.120;17.024;2024-03-29T01:51:00;98920;;;7.2;100.0
68320;BME280;55168;51.120;17.024;2024-03-29T01:52:00;98930;;;7.2;100.0
68320;BME280;55168;51.120;17.024;2024-03-29T01:53:00;98930;;;7.1;100.0
68320;BME280;55168;51.120;17.024;2024-03-29T01:54:00;98920;;;7.1;100.0
68320;BME280;55168;51.120;17.024;2024-03-29T01:55:00;98930;;;7.1;100.0
68320;BME280;55168;51.120;17.024;2024-03-29T01:56:00;98930;;;7.1;100.0
68320;BME280;55168;51.120;17.024;2024-03-29T01:57:00;98930;;;7.1;100.0
68320;BME280;55168;51.120;17.024;2024-03-29T01:58:00;98930;;;7.2;100.0
68320;BME280;55168;51.120;17.024;2024-03-29T01:59:00;98930;;;7.2;100.0
68320;BME280;55168;51.120;17.024;2024-03-29T02:00:00;98930;;;7.2;100.0
68320;BME280;55168;51.120;17.024;2024-03-29T02:01:00;98930;;;7.2;100.0
68320;BME280;55168;51.120;17.024;2024-03-29T02:02:00;98930;;;7.2;100.0
68320;BME280;55168;51.120;17.024;2024-03-29T02:03:00;98930;;;7.2;100.0
68320;BME280;55168;51.120;17.024;2024-03-29T02:04:00;98930;;;7.2;100.0
68320;BME280;55168;51.120;17.024;2024-03-29T02:05:00;98930;;;7.2;100.0
68320;BME280;55168;51.120;17.024;2024-03-29T02:06:00;98930;;;7.2;100.0
68320;BME280;55168;51.120;17.024;2024-03-29T02:07:00;98930;;;7.2;100.0
68320;BME280;55168;51.120;17.024;2024-03-29T02:08:00;98930;;;7.2;100.0
68320;BME280;55168;51.120;17.024;2024-03-29T02:09:00;98930;;;7.2;100.0
68320;BME280;55168;51.120;17.024;2024-03-29T02:10:00;98920;;;7.2;100.0
68320;BME280;55168;51.120;17.024;2024-03-29T02:11:00;98920;;;7.1;100.0
68320;BME280;55168;51.120;17.024;2024-03-29T02:12:00;98930;;;7.1;100.0
68320;BME280;55168;51.120;17.024;2024-03-29T02:13:00;98920;;;7.2;100.0
68320;BME280;55168;51.120;17.024;2024-03-29T02:14:00;98930;;;7.1;100.0
68320;BME280;55168;51.120;17.024;2024-03-29T02:15:00;98920;;;7.1;100.0
68320;BME280;55168;51.120;17.024;2024-03-29T02:16:00;98930;;;7.1;100.0
68320;BME280;55168;51.120;17.024;2024-03-29T02:17:00;98930;;;7.1;100.0
68320;BME280;55168;51.120;17.024;2024-03-29T02:18:00;98930;;;7.1;100.0
68320;BME280;55168;51.120;17.024;2024-03-29T02:19:00;98930;;;7.1;100.0
68320;BME280;55168;51.120;17.024;2024-03-29T02:20:00;98930;;;7.1;100.0
68320;BME280;55168;51.120;17.024;2024-03-29T02:21:00;98930;;;7.0;100.0
68320;BME280;55168;51.120;17.024;2024-03-29T02:22:00;98930;;;7.0;100.0
68320;BME280;55168;51.120;17.024;2024-03-29T02:23:02;98930;;;7.0;100.0
68320;BME280;55168;51.120;17.024;2024-03-29T02:24:07;98940;;;7.1;100.0
68320;BME280;55168;51.120;17.024;2024-03-29T02:25:00;98940;;;7.1;100.0
68320;BME280;55168;51.120;17.024;2024-03-29T02:26:00;98940;;;7.1;100.0
68320;BME280;55168;51.120;17.024;2024-03-29T02:27:00;98940;;;7.1;100.0
68320;BME280;55168;51.120;17.024;2024-03-29T02:28:01;98940;;;7.1;100.0
68320;BME280;55168;51.120;17.024;2024-03-29T02:29:00;98940;;;7.1;100.0
68320;BME280;55168;51.120;17.024;2024-03-29T02:30:00;98940;;;7.1;100.0
68320;BME280;55168;51.120;17.024;2024-03-29T02:31:00;98940;;;7.1;100.0
68320;BME280;55168;51.120;17.024;2024-03-29T02:32:02;98950;;;7.1;100.0
68320;BME280;55168;51.120;17.024;2024-03-29T02:33:00;98950;;;7.1;100.0
68320;BME280;55168;51.120;17.024;2024-03-29T02:34:00;98950;;;7.1;100.0
68320;BME280;55168;51.120;17.024;2024-03-29T02:35:00;98960;;;7.1;100.0
68320;BME280;55168;51.120;17.024;2024-03-29T02:36:00;98960;;;7.2;100.0
68320;BME280;55168;51.120;17.024;2024-03-29T02:37:01;98960;;;7.2;100.0
68320;BME280;55168;51.120;17.024;2024-03-29T02:38:00;98970;;;7.2;100.0
68320;BME280;55168;51.120;17.024;2024-03-29T02:39:00;98970;;;7.2;100.0
68320;BME280;55168;51.120;17.024;2024-03-29T02:40:00;98970;;;7.2;100.0
68320;BME280;55168;51.120;17.024;2024-03-29T02:41:00;98970;;;7.2;100.0
68320;BME280;55168;51.120;17.024;2024-03-29T02:42:00;98970;;;7.2;100.0
68320;BME280;55168;51.120;17.024;2024-03-29T02:43:00;98970;;;7.2;100.0
68320;BME280;55168;51.120;17.024;2024-03-29T02:44:00;98970;;;7.2;100.0
68320;BME280;55168;51.120;17.024;2024-03-29T02:45:00;98970;;;7.2;100.0
68320;BME280;55168;51.120;17.024;2024-03-29T02:46:00;98970;;;7.2;100.0
68320;BME280;55168;51.120;17.024;2024-03-29T02:47:00;98970;;;7.2;100.0
68320;BME280;55168;51.120;17.024;2024-03-29T02:48:00;98980;;;7.2;100.0
68320;BME280;55168;51.120;17.024;2024-03-29T02:49:00;98980;;;7.2;100.0
68320;BME280;55168;51.120;17.024;2024-03-29T02:50:00;98980;;;7.2;100.0
68320;BME280;55168;51.120;17.024;2024-03-29T02:51:00;98980;;;7.2;100.0
68320;BME280;55168;51.120;17.024;2024-03-29T02:52:00;98980;;;7.2;100.0
68320;BME280;55168;51.120;17.024;2024-03-29T02:53:00;98980;;;7.2;100.0
68320;BME280;55168;51.120;17.024;2024-03-29T02:54:00;98980;;;7.2;100.0
68320;BME280;55168;51.120;17.024;2024-03-29T02:55:00;98980;;;7.1;100.0
68320;BME280;55168;51.120;17.024;2024-03-29T02:56:00;98980;;;7.1;100.0
68320;BME280;55168;51.120;17.024;2024-03-29T02:57:00;98980;;;7.1;100.0
68320;BME280;55168;51.120;17.024;2024-03-29T02:58:00;98980;;;7.1;100.0
68320;BME280;55168;51.120;17.024;2024-03-29T02:59:00;98980;;;7.0;100.0
68320;BME280;55168;51.120;17.024;2024-03-29T03:00:00;98980;;;7.0;100.0
68320;BME280;55168;51.120;17.024;2024-03-29T03:01:07;98980;;;6.9;100.0
68320;BME280;55168;51.120;17.024;2024-03-29T03:02:00;98980;;;7.0;100.0
68320;BME280;55168;51.120;17.024;2024-03-29T03:03:00;98980;;;7.0;100.0
68320;BME280;55168;51.120;17.024;2024-03-29T03:04:00;98980;;;6.9;100.0
68320;BME280;55168;51.120;17.024;2024-03-29T03:05:00;98980;;;7.0;100.0
68320;BME280;55168;51.120;17.024;2024-03-29T03:06:00;98980;;;6.9;100.0
68320;BME280;55168;51.120;17.024;2024-03-29T03:07:00;98980;;;6.9;100.0
68320;BME280;55168;51.120;17.024;2024-03-29T03:08:00;98980;;;6.9;100.0
68320;BME280;55168;51.120;17.024;2024-03-29T03:09:00;98980;;;6.9;100.0
68320;BME280;55168;51.120;17.024;2024-03-29T03:10:00;98980;;;6.9;100.0
68320;BME280;55168;51.120;17.024;2024-03-29T03:11:00;98980;;;6.9;100.0
68320;BME280;55168;51.120;17.024;2024-03-29T03:12:00;98980;;;6.9;100.0
68320;BME280;55168;51.120;17.024;2024-03-29T03:13:00;98980;;;6.9;100.0
68320;BME280;55168;51.120;17.024;2024-03-29T03:14:00;98990;;;6.9;100.0
68320;BME280;55168;51.120;17.024;2024-03-29T03:15:00;98980;;;6.9;100.0
68320;BME280;55168;51.120;17.024;2024-03-29T03:16:00;98980;;;6.8;100.0
68320;BME280;55168;51.120;17.024;2024-03-29T03:17:00;98990;;;6.8;100.0
68320;BME280;55168;51.120;17.024;2024-03-29T03:18:00;98990;;;6.8;100.0
68320;BME280;55168;51.120;17.024;2024-03-29T03:19:00;98990;;;6.7;100.0
68320;BME280;55168;51.120;17.024;2024-03-29T03:20:00;98990;;;6.7;100.0
68320;BME280;55168;51.120;17.024;2024-03-29T03:21:00;99000;;;6.7;100.0
68320;BME280;55168;51.120;17.024;2024-03-29T03:22:00;99000;;;6.7;100.0
68320;BME280;55168;51.120;17.024;2024-03-29T03:23:00;99000;;;6.7;100.0
68320;BME280;55168;51.120;17.024;2024-03-29T03:24:00;99000;;;6.7;100.0
68320;BME280;55168;51.120;17.024;2024-03-29T03:25:00;99000;;;6.7;100.0
68320;BME280;55168;51.120;17.024;2024-03-29T03:26:02;99000;;;6.6;100.0
68320;BME280;55168;51.120;17.024;2024-03-29T03:27:00;98990;;;6.6;100.0
68320;BME280;55168;51.120;17.024;2024-03-29T03:28:00;99000;;;6.6;100.0
68320;BME280;55168;51.120;17.024;2024-03-29T03:29:00;99000;;;6.6;100.0
68320;BME280;55168;51.120;17.024;2024-03-29T03:30:00;99000;;;6.6;100.0
68320;BME280;55168;51.120;17.024;2024-03-29T03:31:00;99000;;;6.6;100.0
68320;BME280;55168;51.120;17.024;2024-03-29T03:32:00;98990;;;6.5;100.0
68320;BME280;55168;51.120;17.024;2024-03-29T03:33:00;98990;;;6.6;100.0
68320;BME280;55168;51.120;17.024;2024-03-29T03:34:00;98990;;;6.5;100.0
68320;BME280;55168;51.120;17.024;2024-03-29T03:35:00;98990;;;6.5;100.0
68320;BME280;55168;51.120;17.024;2024-03-29T03:36:00;98990;;;6.5;100.0
68320;BME280;55168;51.120;17.024;2024-03-29T03:37:00;98990;;;6.5;100.0
68320;BME280;55168;51.120;17.024;2024-03-29T03:38:00;98990;;;6.4;100.0
68320;BME280;55168;51.120;17.024;2024-03-29T03:39:00;98980;;;6.4;100.0
68320;BME280;55168;51.120;17.024;2024-03-29T03:40:00;98990;;;6.4;100.0
68320;BME280;55168;51.120;17.024;2024-03-29T03:41:00;98990;;;6.3;100.0
68320;BME280;55168;51.120;17.024;2024-03-29T03:42:00;98990;;;6.3;100.0
68320;BME280;55168;51.120;17.024;2024-03-29T03:43:01;98990;;;6.2;100.0
68320;BME280;55168;51.120;17.024;2024-03-29T03:44:00;98990;;;6.2;100.0
68320;BME280;55168;51.120;17.024;2024-03-29T03:45:00;98990;;;6.2;100.0
68320;BME280;55168;51.120;17.024;2024-03-29T03:46:00;98990;;;6.2;100.0
68320;BME280;55168;51.120;17.024;2024-03-29T03:47:00;98990;;;6.1;100.0
68320;BME280;55168;51.120;17.024;2024-03-29T03:48:00;98990;;;6.1;100.0
68320;BME280;55168;51.120;17.024;2024-03-29T03:49:00;98980;;;6.0;100.0
68320;BME280;55168;51.120;17.024;2024-03-29T03:50:00;98990;;;6.1;100.0
68320;BME280;55168;51.120;17.024;2024-03-29T03:51:00;98990;;;6.1;100.0
68320;BME280;55168;51.120;17.024;2024-03-29T03:52:00;98990;;;6.0;100.0
68320;BME280;55168;51.120;17.024;2024-03-29T03:53:00;98990;;;6.0;100.0
68320;BME280;55168;51.120;17.024;2024-03-29T03:54:00;98990;;;5.9;100.0
68320;BME280;55168;51.120;17.024;2024-03-29T03:55:00;99000;;;5.9;100.0
68320;BME280;55168;51.120;17.024;2024-03-29T03:56:00;99000;;;5.9;100.0
68320;BME280;55168;51.120;17.024;2024-03-29T03:57:00;99000;;;5.9;100.0
68320;BME280;55168;51.120;17.024;2024-03-29T03:58:00;99000;;;5.9;100.0
68320;BME280;55168;51.120;17.024;2024-03-29T03:59:00;99000;;;5.9;100.0
68320;BME280;55168;51.120;17.024;2024-03-29T04:00:00;99000;;;6.0;100.0
68320;BME280;55168;51.120;17.024;2024-03-29T04:01:04;99010;;;5.9;100.0
68320;BME280;55168;51.120;17.024;2024-03-29T04:02:00;99010;;;5.9;100.0
68320;BME280;55168;51.120;17.024;2024-03-29T04:03:00;99020;;;5.9;100.0
68320;BME280;55168;51.120;17.024;2024-03-29T04:04:00;99020;;;5.9;100.0
68320;BME280;55168;51.120;17.024;2024-03-29T04:05:00;99020;;;5.9;100.0
68320;BME280;55168;51.120;17.024;2024-03-29T04:06:03;99020;;;5.9;100.0
68320;BME280;55168;51.120;17.024;2024-03-29T04:07:00;99030;;;5.9;100.0
68320;BME280;55168;51.120;17.024;2024-03-29T04:08:00;99030;;;5.9;100.0
68320;BME280;55168;51.120;17.024;2024-03-29T04:09:00;99030;;;5.9;100.0
68320;BME280;55168;51.120;17.024;2024-03-29T04:10:00;99030;;;5.9;100.0
68320;BME280;55168;51.120;17.024;2024-03-29T04:11:03;99030;;;5.9;100.0
68320;BME280;55168;51.120;17.024;2024-03-29T04:12:00;99030;;;6.0;100.0
68320;BME280;55168;51.120;17.024;2024-03-29T04:13:00;99030;;;5.9;100.0
68320;BME280;55168;51.120;17.024;2024-03-29T04:14:00;99030;;;5.9;100.0
68320;BME280;55168;51.120;17.024;2024-03-29T04:15:00;99030;;;5.9;100.0
68320;BME280;55168;51.120;17.024;2024-03-29T04:16:01;99030;;;5.9;100.0
68320;BME280;55168;51.120;17.024;2024-03-29T04:17:00;99030;;;5.9;100.0
68320;BME280;55168;51.120;17.024;2024-03-29T04:18:00;99020;;;5.9;100.0
68320;BME280;55168;51.120;17.024;2024-03-29T04:19:00;99020;;;5.9;100.0
68320;BME280;55168;51.120;17.024;2024-03-29T04:20:00;99030;;;6.0;100.0
68320;BME280;55168;51.120;17.024;2024-03-29T04:21:01;99020;;;6.0;100.0
68320;BME280;55168;51.120;17.024;2024-03-29T04:22:00;99020;;;6.0;100.0
68320;BME280;55168;51.120;17.024;2024-03-29T04:23:00;99020;;;6.0;100.0
68320;BME280;55168;51.120;17.024;2024-03-29T04:24:00;99020;;;6.0;100.0
68320;BME280;55168;51.120;17.024;2024-03-29T04:25:00;99020;;;6.0;100.0
68320;BME280;55168;51.120;17.024;2024-03-29T04:26:00;99020;;;6.1;100.0
68320;BME280;55168;51.120;17.024;2024-03-29T04:27:00;99030;;;6.1;100.0
68320;BME280;55168;51.120;17.024;2024-03-29T04:28:00;99040;;;6.1;100.0
68320;BME280;55168;51.120;17.024;2024-03-29T04:29:00;99040;;;6.1;100.0
68320;BME280;55168;51.120;17.024;2024-03-29T04:30:00;99040;;;6.1;100.0
68320;BME280;55168;51.120;17.024;2024-03-29T04:31:00;99040;;;6.1;100.0
68320;BME280;55168;51.120;17.024;2024-03-29T04:32:00;99040;;;6.1;100.0
68320;BME280;55168;51.120;17.024;2024-03-29T04:33:00;99040;;;6.2;100.0
68320;BME280;55168;51.120;17.024;2024-03-29T04:34:00;99040;;;6.2;100.0
68320;BME280;55168;51.120;17.024;2024-03-29T04:35:00;99040;;;6.1;100.0
68320;BME280;55168;51.120;17.024;2024-03-29T04:36:02;99040;;;6.1;100.0
68320;BME280;55168;51.120;17.024;2024-03-29T04:37:00;99050;;;6.2;100.0
68320;BME280;55168;51.120;17.024;2024-03-29T04:38:00;99050;;;6.2;100.0
68320;BME280;55168;51.120;17.024;2024-03-29T04:39:00;99050;;;6.2;100.0
68320;BME280;55168;51.120;17.024;2024-03-29T04:40:00;99050;;;6.2;100.0
68320;BME280;55168;51.120;17.024;2024-03-29T04:41:00;99050;;;6.1;100.0
68320;BME280;55168;51.120;17.024;2024-03-29T04:42:00;99050;;;6.1;100.0
68320;BME280;55168;51.120;17.024;2024-03-29T04:43:00;99050;;;6.1;100.0
68320;BME280;55168;51.120;17.024;2024-03-29T04:44:01;99050;;;6.1;100.0
68320;BME280;55168;51.120;17.024;2024-03-29T04:45:00;99050;;;6.1;100.0
68320;BME280;55168;51.120;17.024;2024-03-29T04:46:01;99050;;;6.1;100.0
68320;BME280;55168;51.120;17.024;2024-03-29T04:47:00;99050;;;6.0;100.0
68320;BME280;55168;51.120;17.024;2024-03-29T04:48:00;99050;;;6.0;100.0
68320;BME280;55168;51.120;17.024;2024-03-29T04:49:00;99050;;;6.0;100.0
68320;BME280;55168;51.120;17.024;2024-03-29T04:50:00;99050;;;6.1;100.0
68320;BME280;55168;51.120;17.024;2024-03-29T04:51:00;99060;;;6.1;100.0
68320;BME280;55168;51.120;17.024;2024-03-29T04:52:00;99060;;;6.1;100.0
68320;BME280;55168;51.120;17.024;2024-03-29T04:53:00;99060;;;6.2;100.0
68320;BME280;55168;51.120;17.024;2024-03-29T04:54:00;99060;;;6.2;100.0
68320;BME280;55168;51.120;17.024;2024-03-29T04:55:00;99060;;;6.3;100.0
68320;BME280;55168;51.120;17.024;2024-03-29T04:56:00;99070;;;6.5;100.0
68320;BME280;55168;51.120;17.024;2024-03-29T04:57:00;99070;;;6.6;100.0
68320;BME280;55168;51.120;17.024;2024-03-29T04:58:00;99070;;;6.7;100.0
68320;BME280;55168;51.120;17.024;2024-03-29T04:59:00;99060;;;6.8;100.0
68320;BME280;55168;51.120;17.024;2024-03-29T05:00:00;99060;;;6.9;100.0
68320;BME280;55168;51.120;17.024;2024-03-29T05:01:00;99060;;;7.1;100.0
68320;BME280;55168;51.120;17.024;2024-03-29T05:02:00;99050;;;7.2;100.0
68320;BME280;55168;51.120;17.024;2024-03-29T05:03:00;99050;;;7.3;100.0
68320;BME280;55168;51.120;17.024;2024-03-29T05:04:00;99050;;;7.4;100.0
68320;BME280;55168;51.120;17.024;2024-03-29T05:05:00;99050;;;7.6;100.0
68320;BME280;55168;51.120;17.024;2024-03-29T05:06:00;99050;;;7.8;100.0
68320;BME280;55168;51.120;17.024;2024-03-29T05:07:00;99050;;;7.8;100.0
68320;BME280;55168;51.120;17.024;2024-03-29T05:08:00;99050;;;7.9;100.0
68320;BME280;55168;51.120;17.024;2024-03-29T05:09:00;99040;;;8.1;100.0
68320;BME280;55168;51.120;17.024;2024-03-29T05:10:00;99040;;;8.4;100.0
68320;BME280;55168;51.120;17.024;2024-03-29T05:11:00;99030;;;8.5;100.0
68320;BME280;55168;51.120;17.024;2024-03-29T05:12:00;99030;;;8.7;100.0
68320;BME280;55168;51.120;17.024;2024-03-29T05:13:00;99030;;;8.8;100.0
68320;BME280;55168;51.120;17.024;2024-03-29T05:14:00;99030;;;8.9;100.0
68320;BME280;55168;51.120;17.024;2024-03-29T05:15:00;99030;;;9.0;100.0
68320;BME280;55168;51.120;17.024;2024-03-29T05:16:00;99030;;;9.2;100.0
68320;BME280;55168;51.120;17.024;2024-03-29T05:17:00;99030;;;9.2;100.0
68320;BME280;55168;51.120;17.024;2024-03-29T05:18:00;99020;;;9.4;100.0
68320;BME280;55168;51.120;17.024;2024-03-29T05:19:00;99020;;;9.4;100.0
68320;BME280;55168;51.120;17.024;2024-03-29T05:20:00;99010;;;9.5;100.0
68320;BME280;55168;51.120;17.024;2024-03-29T05:21:00;99010;;;9.6;100.0
68320;BME280;55168;51.120;17.024;2024-03-29T05:22:00;99010;;;9.7;100.0
68320;BME280;55168;51.120;17.024;2024-03-29T05:23:00;99010;;;9.7;100.0
68320;BME280;55168;51.120;17.024;2024-03-29T05:24:00;99010;;;9.6;100.0
68320;BME280;55168;51.120;17.024;2024-03-29T05:25:00;99010;;;9.5;100.0
68320;BME280;55168;51.120;17.024;2024-03-29T05:26:00;99020;;;9.6;100.0
68320;BME280;55168;51.120;17.024;2024-03-29T05:27:00;99010;;;9.8;100.0
68320;BME280;55168;51.120;17.024;2024-03-29T05:28:00;99000;;;9.9;100.0
68320;BME280;55168;51.120;17.024;2024-03-29T05:29:00;99010;;;10.1;100.0
68320;BME280;55168;51.120;17.024;2024-03-29T05:30:00;99000;;;10.1;100.0
68320;BME280;55168;51.120;17.024;2024-03-29T05:31:08;99000;;;10.0;100.0
68320;BME280;55168;51.120;17.024;2024-03-29T05:32:00;99010;;;9.8;100.0
68320;BME280;55168;51.120;17.024;2024-03-29T05:33:00;99020;;;10.1;100.0
68320;BME280;55168;51.120;17.024;2024-03-29T05:34:00;99010;;;10.1;100.0
68320;BME280;55168;51.120;17.024;2024-03-29T05:35:00;99000;;;9.9;100.0